createdAt,value
2023-09-27T00:00:48.679Z,66.16
2023-09-27T00:03:15.403Z,65.96
2023-09-27T00:05:42.084Z,65.98
2023-09-27T00:08:09.221Z,65.96
2023-09-27T00:10:35.759Z,66.16
2023-09-27T00:13:02.203Z,66.17
2023-09-27T00:15:28.665Z,65.76
2023-09-27T00:17:55.532Z,65.86
2023-09-27T00:20:22.985Z,65.83
2023-09-27T00:22:49.851Z,66.30
2023-09-27T00:25:16.585Z,66.06
2023-09-27T00:27:43.993Z,66.10
2023-09-27T00:30:14.441Z,66.18
2023-09-27T00:32:42.162Z,66.00
2023-09-27T00:35:15.799Z,66.10
2023-09-27T00:37:42.591Z,66.30
2023-09-27T00:40:13.958Z,65.98
2023-09-27T00:42:40.447Z,66.08
2023-09-27T00:45:08.050Z,66.28
2023-09-27T00:47:36.691Z,65.94
2023-09-27T00:50:03.812Z,66.01
2023-09-27T00:52:31.172Z,66.01
2023-09-27T00:54:58.140Z,65.77
2023-09-27T00:57:24.942Z,66.30
2023-09-27T00:59:51.493Z,66.19
2023-09-27T01:02:19.632Z,65.79
2023-09-27T01:04:46.281Z,66.03
2023-09-27T01:07:12.796Z,65.96
2023-09-27T01:09:39.525Z,65.78
2023-09-27T01:12:06.219Z,65.59
2023-09-27T01:14:32.660Z,66.05
2023-09-27T01:17:12.051Z,66.09
2023-09-27T01:19:42.077Z,66.01
2023-09-27T01:22:08.550Z,66.41
2023-09-27T01:24:38.763Z,65.95
2023-09-27T01:27:10.787Z,65.65
2023-09-27T01:29:37.430Z,66.15
2023-09-27T01:32:04.041Z,66.01
2023-09-27T01:34:30.642Z,65.67
2023-09-27T01:36:57.261Z,65.67
2023-09-27T01:39:25.427Z,66.15
2023-09-27T01:41:51.962Z,66.16
2023-09-27T01:44:19.564Z,65.84
2023-09-27T01:46:46.129Z,65.65
2023-09-27T01:49:12.686Z,66.23
2023-09-27T01:51:39.125Z,66.36
2023-09-27T01:54:05.980Z,66.24
2023-09-27T01:56:32.707Z,66.07
2023-09-27T01:58:59.244Z,66.20
2023-09-27T02:01:25.723Z,66.51
2023-09-27T02:03:52.172Z,66.06
2023-09-27T02:06:18.677Z,66.34
2023-09-27T02:08:45.181Z,66.03
2023-09-27T02:11:13.775Z,65.91
2023-09-27T02:13:40.212Z,65.95
2023-09-27T02:16:06.701Z,65.78
2023-09-27T02:18:33.548Z,66.40
2023-09-27T02:20:59.968Z,66.45
2023-09-27T02:23:26.465Z,66.22
2023-09-27T02:25:59.852Z,65.94
2023-09-27T02:28:26.408Z,65.91
2023-09-27T02:30:53.047Z,65.89
2023-09-27T02:33:19.964Z,66.05
2023-09-27T02:35:46.733Z,65.99
2023-09-27T02:38:13.814Z,65.69
2023-09-27T02:40:41.961Z,66.14
2023-09-27T02:43:08.400Z,66.26
2023-09-27T02:45:35.496Z,66.10
2023-09-27T02:48:02.827Z,65.93
2023-09-27T02:50:29.470Z,66.17
2023-09-27T02:52:56.012Z,66.01
2023-09-27T02:55:22.495Z,65.89
2023-09-27T02:57:54.246Z,66.06
2023-09-27T03:00:22.444Z,66.23
2023-09-27T03:02:49.176Z,66.04
2023-09-27T03:05:16.250Z,65.76
2023-09-27T03:07:45.954Z,66.05
2023-09-27T03:10:12.879Z,65.92
2023-09-27T03:12:43.248Z,66.09
2023-09-27T03:15:13.026Z,65.89
2023-09-27T03:17:41.492Z,65.93
2023-09-27T03:20:10.466Z,66.13
2023-09-27T03:22:37.575Z,66.16
2023-09-27T03:25:04.349Z,65.66
2023-09-27T03:27:30.810Z,66.06
2023-09-27T03:29:57.286Z,65.81
2023-09-27T03:32:23.768Z,66.07
2023-09-27T03:34:52.041Z,65.59
2023-09-27T03:37:19.392Z,66.13
2023-09-27T03:39:45.878Z,65.69
2023-09-27T03:42:12.458Z,66.15
2023-09-27T03:44:39.745Z,65.86
2023-09-27T03:47:06.331Z,65.84
2023-09-27T03:49:32.899Z,65.83
2023-09-27T03:51:59.332Z,65.67
2023-09-27T03:54:25.818Z,65.50
2023-09-27T03:56:53.179Z,65.96
2023-09-27T03:59:20.040Z,65.95
2023-09-27T04:01:47.781Z,65.56
2023-09-27T04:04:14.312Z,65.94
2023-09-27T04:06:40.790Z,65.88
2023-09-27T04:09:08.210Z,65.58
2023-09-27T04:11:34.741Z,65.54
2023-09-27T04:14:01.354Z,65.98
2023-09-27T04:16:31.937Z,66.07
2023-09-27T04:18:59.684Z,65.86
2023-09-27T04:21:26.745Z,65.96
2023-09-27T04:23:57.796Z,65.93
2023-09-27T04:26:25.147Z,65.63
2023-09-27T04:28:53.585Z,65.70
2023-09-27T04:31:20.752Z,65.57
2023-09-27T04:33:48.398Z,65.40
2023-09-27T04:36:19.014Z,62.77
2023-09-27T04:38:47.480Z,63.64
2023-09-27T04:41:17.483Z,63.50
2023-09-27T04:43:44.637Z,62.75
2023-09-27T04:46:19.159Z,63.06
2023-09-27T04:48:47.481Z,63.66
2023-09-27T04:51:14.111Z,63.28
2023-09-27T04:53:40.916Z,63.23
2023-09-27T04:56:08.804Z,63.37
2023-09-27T04:58:37.731Z,63.32
2023-09-27T05:01:07.314Z,63.19
2023-09-27T05:03:34.498Z,62.80
2023-09-27T05:06:01.095Z,62.41
2023-09-27T05:08:28.042Z,62.41
2023-09-27T05:10:55.905Z,62.69
2023-09-27T05:13:22.979Z,62.56
2023-09-27T05:15:50.409Z,62.13
2023-09-27T05:18:17.582Z,61.86
2023-09-27T05:20:47.456Z,62.35
2023-09-27T05:23:13.976Z,62.77
2023-09-27T05:25:40.749Z,62.68
2023-09-27T05:28:07.305Z,62.77
2023-09-27T05:30:34.000Z,62.71
2023-09-27T05:33:00.687Z,62.96
2023-09-27T05:35:27.472Z,62.83
2023-09-27T05:37:53.990Z,62.98
2023-09-27T05:40:20.466Z,62.48
2023-09-27T05:42:47.470Z,62.65
2023-09-27T05:45:14.565Z,62.71
2023-09-27T05:47:42.475Z,61.51
2023-09-27T05:50:10.421Z,62.55
2023-09-27T05:52:37.007Z,62.04
2023-09-27T05:55:06.978Z,62.67
2023-09-27T05:57:33.901Z,62.60
2023-09-27T06:00:01.717Z,62.23
2023-09-27T06:02:32.569Z,62.03
2023-09-27T06:05:00.317Z,62.25
2023-09-27T06:07:27.097Z,62.00
2023-09-27T06:09:53.522Z,62.12
2023-09-27T06:12:19.953Z,61.53
2023-09-27T06:14:46.559Z,62.62
2023-09-27T06:17:18.110Z,62.46
2023-09-27T06:19:45.107Z,62.12
2023-09-27T06:22:14.818Z,62.40
2023-09-27T06:24:42.072Z,62.40
2023-09-27T06:27:09.124Z,61.60
2023-09-27T06:29:35.662Z,61.49
2023-09-27T06:32:02.966Z,62.13
2023-09-27T06:34:29.526Z,62.39
2023-09-27T06:36:57.526Z,61.93
2023-09-27T06:39:27.193Z,61.93
2023-09-27T06:41:53.781Z,62.05
2023-09-27T06:44:20.405Z,62.35
2023-09-27T06:46:49.402Z,62.29
2023-09-27T06:49:18.295Z,62.18
2023-09-27T06:51:45.267Z,62.54
2023-09-27T06:54:11.862Z,62.80
2023-09-27T06:56:38.596Z,62.46
2023-09-27T06:59:06.286Z,62.20
2023-09-27T07:01:32.773Z,62.41
2023-09-27T07:03:59.376Z,62.77
2023-09-27T07:06:26.047Z,62.15
2023-09-27T07:08:54.266Z,62.41
2023-09-27T07:11:22.254Z,62.64
2023-09-27T07:13:48.977Z,62.20
2023-09-27T07:16:21.764Z,62.48
2023-09-27T07:18:50.123Z,62.22
2023-09-27T07:21:18.449Z,62.64
2023-09-27T07:23:44.935Z,62.44
2023-09-27T07:26:11.420Z,62.37
2023-09-27T07:28:38.664Z,62.37
2023-09-27T07:31:06.031Z,62.19
2023-09-27T07:33:32.832Z,62.37
2023-09-27T07:35:59.820Z,62.36
2023-09-27T07:38:29.119Z,62.72
2023-09-27T07:40:55.615Z,62.62
2023-09-27T07:43:22.755Z,61.94
2023-09-27T07:45:49.230Z,62.39
2023-09-27T07:48:16.104Z,62.49
2023-09-27T07:50:42.693Z,62.17
2023-09-27T07:53:12.452Z,62.51
2023-09-27T07:55:51.751Z,62.29
2023-09-27T07:58:18.932Z,62.43
2023-09-27T08:00:45.567Z,62.20
2023-09-27T08:03:12.390Z,62.14
2023-09-27T08:05:44.802Z,62.30
2023-09-27T08:08:12.411Z,62.39
2023-09-27T08:10:46.991Z,62.25
2023-09-27T08:13:16.049Z,62.06
2023-09-27T08:15:43.715Z,61.93
2023-09-27T08:18:10.566Z,62.11
2023-09-27T08:20:37.314Z,62.23
2023-09-27T08:23:04.266Z,61.88
2023-09-27T08:25:30.703Z,62.33
2023-09-27T08:27:57.625Z,61.65
2023-09-27T08:30:24.466Z,61.70
2023-09-27T08:32:52.695Z,61.78
2023-09-27T08:35:19.883Z,61.67
2023-09-27T08:37:46.754Z,61.00
2023-09-27T08:40:16.381Z,60.78
2023-09-27T08:42:44.065Z,60.58
2023-09-27T08:45:15.446Z,60.40
2023-09-27T08:47:44.379Z,60.07
2023-09-27T08:50:15.752Z,60.08
2023-09-27T08:52:48.717Z,60.49
2023-09-27T08:55:17.644Z,60.32
2023-09-27T08:57:49.800Z,60.45
2023-09-27T09:00:21.538Z,60.29
2023-09-27T09:02:58.384Z,60.21
2023-09-27T09:05:29.182Z,60.33
2023-09-27T09:07:57.253Z,60.31
2023-09-27T09:10:24.068Z,60.12
2023-09-27T09:12:50.740Z,60.62
2023-09-27T09:15:29.536Z,60.47
2023-09-27T09:17:59.178Z,60.45
2023-09-27T09:20:34.176Z,60.27
2023-09-27T09:23:08.546Z,60.50
2023-09-27T09:25:44.341Z,60.77
2023-09-27T09:28:10.918Z,60.17
2023-09-27T09:30:38.987Z,60.37
2023-09-27T09:33:37.800Z,60.66
2023-09-27T09:36:04.898Z,60.71
2023-09-27T09:38:32.205Z,60.58
2023-09-27T09:41:01.499Z,60.66
2023-09-27T09:43:38.617Z,60.40
2023-09-27T09:46:11.764Z,61.09
2023-09-27T09:48:42.466Z,61.30
2023-09-27T09:51:09.473Z,61.60
2023-09-27T09:53:40.633Z,61.65
2023-09-27T09:58:58.752Z,61.38
2023-09-27T10:01:30.539Z,61.49
2023-09-27T10:03:59.569Z,61.21
2023-09-27T10:06:45.037Z,61.58
2023-09-27T10:09:16.073Z,61.25
2023-09-27T10:11:49.183Z,61.43
2023-09-27T10:14:19.563Z,61.66
2023-09-27T10:16:46.755Z,61.30
2023-09-27T10:19:25.602Z,61.57
2023-09-27T10:22:15.375Z,61.13
2023-09-27T10:24:44.919Z,61.37
2023-09-27T10:27:11.495Z,61.53
2023-09-27T10:29:58.937Z,61.10
2023-09-27T10:32:25.909Z,60.77
2023-09-27T10:34:53.093Z,60.89
2023-09-27T10:37:59.430Z,60.83
2023-09-27T10:40:26.363Z,60.90
2023-09-27T10:42:53.926Z,60.51
2023-09-27T10:45:20.613Z,60.70
2023-09-27T10:47:50.711Z,60.06
2023-09-27T10:50:28.798Z,59.96
2023-09-27T10:52:55.351Z,59.90
2023-09-27T10:55:21.906Z,59.70
2023-09-27T10:57:49.341Z,58.54
2023-09-27T11:00:19.261Z,58.58
2023-09-27T11:02:45.816Z,58.79
2023-09-27T11:05:13.146Z,58.75
2023-09-27T11:07:47.657Z,59.18
2023-09-27T11:10:34.453Z,59.43
2023-09-27T11:13:12.993Z,60.00
2023-09-27T11:15:40.961Z,58.94
2023-09-27T11:18:11.807Z,59.22
2023-09-27T11:20:41.116Z,59.25
2023-09-27T11:23:08.114Z,58.42
2023-09-27T11:25:36.276Z,57.38
2023-09-27T11:28:03.499Z,57.10
2023-09-27T11:30:35.813Z,56.04
2023-09-27T11:33:09.251Z,54.94
2023-09-27T11:35:36.110Z,54.02
2023-09-27T11:38:13.263Z,53.81
2023-09-27T11:40:44.809Z,52.96
2023-09-27T11:43:12.326Z,52.30
2023-09-27T11:45:49.473Z,51.43
2023-09-27T11:48:16.926Z,51.66
2023-09-27T11:50:43.692Z,50.21
2023-09-27T11:53:10.368Z,49.91
2023-09-27T11:55:36.920Z,49.56
2023-09-27T11:58:03.700Z,48.95
2023-09-27T12:00:30.801Z,48.09
2023-09-27T12:02:58.606Z,47.77
2023-09-27T12:05:26.403Z,47.03
2023-09-27T12:07:53.977Z,46.30
2023-09-27T12:10:20.521Z,46.17
2023-09-27T12:12:46.999Z,45.22
2023-09-27T12:15:13.671Z,45.16
2023-09-27T12:17:40.294Z,44.48
2023-09-27T12:20:10.983Z,44.05
2023-09-27T12:22:42.901Z,43.97
2023-09-27T12:25:10.879Z,43.39
2023-09-27T12:27:37.553Z,43.11
2023-09-27T12:30:06.350Z,43.59
2023-09-27T12:32:33.179Z,45.21
2023-09-27T12:34:59.758Z,46.52
2023-09-27T12:37:27.132Z,46.89
2023-09-27T12:39:53.567Z,47.38
2023-09-27T12:42:20.109Z,47.76
2023-09-27T12:44:46.596Z,48.10
2023-09-27T12:47:15.321Z,48.70
2023-09-27T12:49:41.868Z,48.80
2023-09-27T12:52:08.338Z,49.69
2023-09-27T12:54:35.024Z,50.19
2023-09-27T12:57:01.465Z,50.46
2023-09-27T12:59:28.207Z,50.60
2023-09-27T13:01:55.151Z,51.06
2023-09-27T13:04:21.698Z,51.49
2023-09-27T13:06:49.623Z,51.25
2023-09-27T13:09:19.058Z,52.51
2023-09-27T13:11:45.694Z,52.45
2023-09-27T13:14:12.464Z,52.62
2023-09-27T13:16:39.055Z,53.09
2023-09-27T13:19:05.635Z,53.62
2023-09-27T13:21:32.091Z,53.92
2023-09-27T13:23:58.541Z,54.01
2023-09-27T13:26:26.744Z,54.24
2023-09-27T13:28:53.432Z,54.83
2023-09-27T13:31:20.070Z,54.38
2023-09-27T13:33:51.731Z,54.52
2023-09-27T13:36:21.712Z,54.88
2023-09-27T13:38:50.650Z,55.26
2023-09-27T13:41:17.299Z,55.52
2023-09-27T13:43:43.811Z,56.05
2023-09-27T13:46:10.473Z,56.27
2023-09-27T13:48:37.153Z,56.36
2023-09-27T13:51:03.832Z,56.62
2023-09-27T13:53:30.294Z,56.67
2023-09-27T13:55:57.077Z,57.20
2023-09-27T13:58:23.853Z,57.56
2023-09-27T14:00:50.509Z,57.85
2023-09-27T14:03:18.503Z,58.10
2023-09-27T14:05:45.195Z,58.17
2023-09-27T14:08:12.327Z,57.81
2023-09-27T14:10:38.813Z,58.61
2023-09-27T14:13:05.251Z,58.75
2023-09-27T14:15:32.483Z,58.77
2023-09-27T14:17:59.078Z,58.47
2023-09-27T14:20:25.662Z,58.97
2023-09-27T14:22:53.384Z,58.85
2023-09-27T14:25:21.071Z,59.37
2023-09-27T14:27:48.833Z,59.12
2023-09-27T14:30:15.777Z,59.16
2023-09-27T14:32:44.303Z,59.08
2023-09-27T14:35:13.761Z,59.16
2023-09-27T14:37:40.917Z,59.60
2023-09-27T14:40:10.557Z,59.38
2023-09-27T14:42:43.037Z,59.32
2023-09-27T14:45:20.150Z,60.03
2023-09-27T14:47:55.329Z,59.85
2023-09-27T14:50:21.898Z,60.08
2023-09-27T14:52:49.685Z,60.24
2023-09-27T14:55:19.822Z,59.89
2023-09-27T14:57:46.904Z,59.98
2023-09-27T15:00:13.790Z,60.01
2023-09-27T15:02:42.761Z,60.27
2023-09-27T15:05:09.664Z,60.41
2023-09-27T15:07:37.424Z,60.16
2023-09-27T15:10:04.110Z,60.20
2023-09-27T15:12:30.601Z,60.42
2023-09-27T15:14:57.171Z,60.29
2023-09-27T15:17:23.606Z,60.88
2023-09-27T15:19:50.199Z,60.43
2023-09-27T15:22:17.846Z,60.41
2023-09-27T15:24:44.801Z,60.50
2023-09-27T15:27:11.360Z,60.50
2023-09-27T15:29:37.935Z,60.49
2023-09-27T15:32:04.596Z,61.05
2023-09-27T15:34:34.369Z,61.24
2023-09-27T15:37:00.924Z,61.20
2023-09-27T15:39:27.501Z,61.52
2023-09-27T15:41:54.608Z,61.99
2023-09-27T15:44:21.037Z,62.89
2023-09-27T15:46:50.392Z,62.22
2023-09-27T15:49:16.828Z,62.26
2023-09-27T15:51:44.609Z,62.57
2023-09-27T15:54:18.604Z,62.27
2023-09-27T15:56:46.180Z,62.76
2023-09-27T15:59:12.714Z,62.36
2023-09-27T16:01:39.449Z,62.23
2023-09-27T16:04:08.389Z,62.80
2023-09-27T16:06:35.163Z,62.77
2023-09-27T16:09:01.735Z,62.19
2023-09-27T16:11:31.205Z,62.36
2023-09-27T16:13:57.841Z,62.28
2023-09-27T16:16:24.480Z,62.49
2023-09-27T16:18:50.979Z,62.46
2023-09-27T16:21:20.198Z,62.58
2023-09-27T16:23:46.758Z,62.54
2023-09-27T16:26:13.361Z,62.55
2023-09-27T16:28:40.385Z,62.47
2023-09-27T16:31:09.561Z,62.55
2023-09-27T16:33:38.562Z,62.15
2023-09-27T16:36:05.318Z,62.74
2023-09-27T16:38:31.764Z,62.65
2023-09-27T16:40:59.090Z,62.87
2023-09-27T16:43:25.657Z,62.86
2023-09-27T16:45:52.229Z,63.03
2023-09-27T16:48:19.040Z,63.02
2023-09-27T16:50:45.543Z,63.09
2023-09-27T16:53:12.021Z,63.10
2023-09-27T16:55:38.807Z,62.99
2023-09-27T16:58:06.295Z,63.24
2023-09-27T17:00:32.891Z,63.37
2023-09-27T17:02:59.433Z,63.47
2023-09-27T17:05:25.996Z,63.41
2023-09-27T17:07:52.473Z,63.38
2023-09-27T17:10:19.080Z,63.07
2023-09-27T17:12:45.489Z,63.25
2023-09-27T17:15:12.214Z,63.32
2023-09-27T17:17:38.689Z,63.53
2023-09-27T17:20:05.916Z,63.50
2023-09-27T17:22:32.464Z,63.18
2023-09-27T17:24:58.959Z,63.11
2023-09-27T17:27:25.642Z,63.28
2023-09-27T17:29:52.142Z,63.53
2023-09-27T17:32:19.931Z,63.30
2023-09-27T17:34:46.487Z,63.36
2023-09-27T17:37:13.393Z,63.04
2023-09-27T17:39:39.926Z,63.69
2023-09-27T17:42:06.751Z,63.39
2023-09-27T17:44:33.521Z,63.17
2023-09-27T17:47:00.082Z,63.31
2023-09-27T17:49:27.412Z,63.20
2023-09-27T17:51:56.613Z,63.29
2023-09-27T17:54:23.815Z,63.30
2023-09-27T17:56:53.972Z,63.49
2023-09-27T17:59:20.698Z,63.63
2023-09-27T18:01:49.156Z,63.34
2023-09-27T18:04:16.659Z,63.49
2023-09-27T18:06:43.176Z,63.20
2023-09-27T18:09:10.178Z,63.68
2023-09-27T18:11:36.628Z,63.11
2023-09-27T18:14:03.978Z,63.05
2023-09-27T18:16:30.580Z,63.29
2023-09-27T18:18:57.609Z,62.86
2023-09-27T18:21:24.754Z,62.83
2023-09-27T18:23:51.823Z,63.02
2023-09-27T18:26:18.654Z,62.92
2023-09-27T18:28:45.216Z,62.84
2023-09-27T18:31:12.165Z,63.38
2023-09-27T18:33:39.095Z,63.36
2023-09-27T18:36:05.904Z,63.63
2023-09-27T18:38:32.721Z,63.58
2023-09-27T18:40:59.518Z,63.58
2023-09-27T18:43:26.168Z,63.62
2023-09-27T18:45:52.917Z,63.83
2023-09-27T18:48:20.258Z,63.59
2023-09-27T18:50:49.831Z,63.74
2023-09-27T18:53:16.751Z,63.64
2023-09-27T18:55:43.262Z,63.73
2023-09-27T18:58:15.086Z,63.94
2023-09-27T19:00:45.122Z,63.61
2023-09-27T19:03:13.659Z,63.93
2023-09-27T19:05:40.785Z,64.07
2023-09-27T19:08:07.619Z,64.29
2023-09-27T19:10:34.194Z,64.04
2023-09-27T19:13:00.787Z,64.04
2023-09-27T19:15:27.381Z,64.13
2023-09-27T19:17:57.645Z,63.98
2023-09-27T19:20:25.259Z,63.91
2023-09-27T19:22:53.977Z,64.02
2023-09-27T19:25:21.669Z,64.32
2023-09-27T19:27:49.920Z,63.97
2023-09-27T19:30:17.305Z,64.11
2023-09-27T19:32:46.869Z,64.36
2023-09-27T19:35:13.969Z,64.49
2023-09-27T19:37:43.633Z,64.71
2023-09-27T19:40:13.716Z,64.46
2023-09-27T19:42:43.705Z,64.55
2023-09-27T19:45:11.289Z,65.04
2023-09-27T19:47:37.969Z,64.72
2023-09-27T19:50:06.384Z,64.70
2023-09-27T19:52:34.098Z,64.60
2023-09-27T19:55:00.836Z,64.54
2023-09-27T19:57:27.380Z,64.56
2023-09-27T19:59:54.031Z,64.50
2023-09-27T20:02:20.899Z,64.66
2023-09-27T20:04:48.374Z,64.93
2023-09-27T20:07:14.991Z,64.77
2023-09-27T20:09:41.527Z,64.85
2023-09-27T20:12:08.072Z,65.05
2023-09-27T20:14:34.686Z,64.85
2023-09-27T20:17:01.352Z,64.92
2023-09-27T20:19:27.925Z,64.87
2023-09-27T20:21:56.861Z,64.70
2023-09-27T20:24:27.172Z,64.98
2023-09-27T20:26:53.924Z,64.40
2023-09-27T20:29:21.094Z,63.25
2023-09-27T20:31:48.513Z,63.10
2023-09-27T20:34:15.225Z,63.39
2023-09-27T20:36:42.201Z,63.36
2023-09-27T20:39:09.777Z,63.52
2023-09-27T20:41:36.328Z,63.52
2023-09-27T20:44:02.953Z,63.33
2023-09-27T20:46:29.541Z,63.69
2023-09-27T20:48:56.481Z,63.77
2023-09-27T20:51:23.053Z,63.76
2023-09-27T20:53:49.653Z,63.78
2023-09-27T20:56:16.266Z,63.56
2023-09-27T20:58:43.181Z,63.83
2023-09-27T21:01:31.165Z,63.65
2023-09-27T21:04:00.214Z,63.87
2023-09-27T21:06:30.733Z,63.69
2023-09-27T21:09:02.191Z,63.87
2023-09-27T21:11:29.671Z,63.95
2023-09-27T21:14:01.188Z,64.03
2023-09-27T21:16:29.155Z,64.15
2023-09-27T21:18:56.515Z,63.82
2023-09-27T21:21:24.209Z,63.95
2023-09-27T21:23:51.172Z,64.12
2023-09-27T21:26:18.285Z,64.03
2023-09-27T21:28:46.484Z,64.36
2023-09-27T21:31:16.290Z,64.23
2023-09-27T21:33:43.768Z,64.20
2023-09-27T21:36:10.705Z,64.38
2023-09-27T21:38:38.272Z,64.25
2023-09-27T21:41:05.059Z,64.26
2023-09-27T21:43:33.707Z,64.38
2023-09-27T21:46:01.046Z,64.36
2023-09-27T21:48:27.766Z,64.29
2023-09-27T21:50:54.323Z,64.33
2023-09-27T21:53:20.912Z,64.46
2023-09-27T21:55:47.762Z,64.05
2023-09-27T21:58:14.772Z,64.23
2023-09-27T22:00:41.538Z,64.40
2023-09-27T22:03:09.449Z,64.55
2023-09-27T22:05:36.204Z,64.18
2023-09-27T22:08:02.986Z,64.41
2023-09-27T22:10:35.770Z,64.54
2023-09-27T22:13:22.177Z,64.55
2023-09-27T22:15:52.230Z,64.29
2023-09-27T22:18:20.755Z,64.42
2023-09-27T22:20:49.145Z,64.33
2023-09-27T22:23:33.824Z,64.47
2023-09-27T22:26:01.529Z,64.48
2023-09-27T22:28:31.808Z,64.50
2023-09-27T22:31:01.826Z,64.48
2023-09-27T22:33:34.152Z,64.48
2023-09-27T22:36:02.086Z,64.37
2023-09-27T22:38:28.664Z,64.46
2023-09-27T22:40:57.739Z,64.54
2023-09-27T22:43:24.568Z,64.86
2023-09-27T22:45:51.116Z,64.42
2023-09-27T22:48:20.120Z,64.83
2023-09-27T22:50:49.423Z,64.68
2023-09-27T22:53:22.386Z,64.56
2023-09-27T22:55:51.598Z,64.74
2023-09-27T22:58:23.152Z,64.58
2023-09-27T23:00:58.102Z,64.67
2023-09-27T23:03:28.008Z,64.67
2023-09-27T23:05:57.500Z,64.76
2023-09-27T23:08:28.258Z,65.04
2023-09-27T23:10:56.478Z,64.93
2023-09-27T23:13:29.672Z,64.84
2023-09-27T23:15:57.003Z,64.70
2023-09-27T23:18:30.959Z,65.08
2023-09-27T23:20:59.025Z,64.71
2023-09-27T23:23:26.481Z,64.66
2023-09-27T23:25:54.891Z,64.86
2023-09-27T23:28:41.387Z,65.07
2023-09-27T23:31:11.362Z,64.88
2023-09-27T23:33:44.831Z,64.76
2023-09-27T23:36:25.882Z,64.92
2023-09-27T23:39:03.948Z,65.00
2023-09-27T23:41:31.007Z,65.05
2023-09-27T23:44:01.306Z,64.99
2023-09-27T23:46:28.376Z,64.98
2023-09-27T23:48:54.946Z,65.02
2023-09-27T23:51:21.605Z,64.68
2023-09-27T23:53:48.289Z,64.82
2023-09-27T23:56:16.681Z,64.58
2023-09-27T23:58:44.677Z,65.01
